Terminal Aerodrome Forecast
Issued by NWS

Home | Current Version | Previous Version | Text Only | Print | Product List | Glossary Off
Versions: 1 2 3 4 5 6 7 8 9 10 11 12 13 14 15 16 17

000
FTUS43 KMPX 251732
TAFRNH
TAF
KRNH 251732Z 2518/2618 26021G30KT P6SM OVC022
     FM252200 29025G33KT P6SM BKN035
     FM260100 29015G22KT P6SM SCT040
     FM260600 30010KT P6SM SKC
     FM261200 30012KT P6SM FEW025=

USA.gov is the U.S. government's official web portal to all federal, state and local government web resources and services.